createdAt,value
2018-06-11T00:16:01.934Z,76.0
2018-06-11T00:32:45.023Z,76.4
2018-06-11T00:49:28.060Z,76.8
2018-06-11T01:06:11.181Z,76.8
2018-06-11T01:22:54.062Z,77.2
2018-06-11T01:39:37.003Z,77.2
2018-06-11T01:56:19.760Z,77.6
2018-06-11T02:13:02.540Z,77.6
2018-06-11T02:29:45.345Z,77.6
2018-06-11T02:46:28.302Z,77.6
2018-06-11T03:03:11.144Z,77.6
2018-06-11T03:19:53.705Z,77.6
2018-06-11T03:36:36.221Z,76.8
2018-06-11T03:53:18.908Z,76.0
2018-06-11T04:10:01.587Z,75.6
2018-06-11T04:26:44.342Z,75.2
2018-06-11T04:43:27.281Z,74.8
2018-06-11T05:00:10.248Z,74.4
2018-06-11T05:16:52.971Z,74.0
2018-06-11T05:33:35.822Z,73.6
2018-06-11T05:50:18.634Z,73.6
2018-06-11T06:07:01.809Z,72.8
2018-06-11T06:23:45.059Z,72.8
2018-06-11T06:40:28.366Z,72.8
2018-06-11T06:57:11.922Z,72.0
2018-06-11T07:13:55.227Z,72.0
2018-06-11T07:30:38.792Z,72.0
2018-06-11T07:44:02.193Z,70.0
2018-06-11T07:50:44.160Z,69.6
2018-06-11T08:00:47.519Z,67.2
2018-06-11T08:14:12.311Z,66.8
2018-06-11T08:20:54.842Z,64.4
2018-06-11T08:37:40.685Z,65.2
2018-06-11T08:44:22.912Z,64.4
2018-06-11T09:01:08.311Z,65.2
2018-06-11T09:11:11.887Z,63.2
2018-06-11T09:24:36.678Z,63.6
2018-06-11T09:38:01.972Z,61.6
2018-06-11T09:54:48.761Z,61.2
2018-06-11T10:08:14.595Z,58.0
2018-06-11T10:14:57.615Z,60.0
2018-06-11T10:31:45.351Z,58.8
2018-06-11T10:48:32.780Z,58.4
2018-06-11T11:01:58.765Z,58.4
2018-06-11T11:08:42.062Z,56.0
2018-06-11T11:25:30.111Z,54.0
2018-06-11T11:35:34.916Z,56.0
2018-06-11T11:52:23.082Z,55.6
2018-06-11T12:02:28.031Z,53.6
2018-06-11T12:19:16.459Z,54.4
2018-06-11T12:36:05.289Z,54.4
2018-06-11T12:52:54.077Z,52.8
2018-06-11T13:09:43.112Z,52.8
2018-06-11T13:26:32.287Z,52.4
2018-06-11T13:43:21.693Z,52.0
2018-06-11T14:00:11.079Z,52.4
2018-06-11T14:17:00.596Z,51.6
2018-06-11T14:33:50.262Z,51.2
2018-06-11T14:47:18.242Z,50.8
2018-06-11T15:04:08.713Z,49.6
2018-06-11T15:17:37.096Z,49.6
2018-06-11T15:34:27.892Z,49.2
2018-06-11T15:51:18.951Z,49.2
2018-06-11T15:58:03.318Z,50.0
2018-06-11T16:14:53.773Z,50.0
2018-06-11T16:31:43.890Z,49.2
2018-06-11T16:48:33.827Z,50.4
2018-06-11T17:05:23.322Z,50.8
2018-06-11T17:22:12.852Z,51.2
2018-06-11T17:39:02.060Z,52.0
2018-06-11T17:55:50.386Z,52.0
2018-06-11T18:12:39.744Z,52.0
2018-06-11T18:29:27.572Z,52.8
2018-06-11T18:46:15.438Z,54.0
2018-06-11T18:59:42.164Z,55.2
2018-06-11T19:16:28.897Z,56.0
2018-06-11T19:33:15.923Z,57.2
2018-06-11T19:50:02.779Z,57.2
2018-06-11T20:06:49.240Z,58.0
2018-06-11T20:23:35.736Z,58.4
2018-06-11T20:40:22.036Z,59.6
2018-06-11T20:50:25.534Z,61.6
2018-06-11T21:07:11.051Z,63.2
2018-06-11T21:23:56.128Z,65.2
2018-06-11T21:40:40.865Z,65.6
2018-06-11T21:57:25.240Z,66.8
2018-06-11T22:14:09.222Z,68.0
2018-06-11T22:30:52.967Z,68.0
2018-06-11T22:47:36.615Z,68.8
2018-06-11T23:04:20.129Z,69.6
2018-06-11T23:21:03.557Z,70.0
2018-06-11T23:37:46.923Z,70.4
2018-06-11T23:54:30.096Z,71.6
